Aérodrome :
LOGIN :

S'inscrire | Disclaimer

   EN    FR    IT 

 










Légende :    VFR   VFR Marginal   IFR   IFR Intensif   IFR Très Intensif
Visi : 
Plafond : 
>= 8 km
>= 3000ft
5 à 8 km
1000 à 3000 ft
1500m à 5 km
500 à 1000 ft
800 à 1500m
200 à 500 ft
< 800m
< 200 ft
Symboles :   Orages  Brouillard  Fortes neiges  Fortes précipitations  Vent > 20 kt
SIGMETs :   Divers  Orages  Givrage  Turbulence  Onde Orograph.  Cendres Volcan.







- Altitude de l'aérodrome : 768 ft
- Code IATA : MXP


LIMC - Milano Malpensa

METARs EXPIRÉS :
  • 241420Z 22006KT 150V280 9999 SCT040 32/20 Q1014 NOSIG
  • 241350Z 26009KT 220V310 9999 SCT040 32/20 Q1015 NOSIG
  • 241320Z 20006KT 090V250 CAVOK 32/20 Q1015 NOSIG
  • 241250Z 18006KT 140V270 CAVOK 32/19 Q1015 NOSIG
  • 241220Z 21007KT 140V260 CAVOK 32/18 Q1015 NOSIG
  • 241150Z 19005KT 110V240 CAVOK 31/20 Q1016 NOSIG

Prévision TAF périmée.
Pas de NOTAMs connus pour ce terrain.
3 SIGMETs publiés pour la FIR Milano (LIMM) :
 
Turbulence forte
LIMM SIGMET 19 VALID 251830/252130 LIMM- LIMM MILANO FIR SEV TURB OBS E OF LINE N4706 E01146 - N4327 E01217 FL270/420 MOV E NC=
Orages noyés dans la masse
LIMM SIGMET 18 VALID 251700/251900 LIMM- LIMM MILANO FIR EMBD TS OBS WI N4519 E01033 - N4440 E01230 - N4336 E01214 - N4327 E01431 - N4516 E01259 - N4536 E01354 - N4559 E01333 - N4531 E01215 - N4516 E01152 - N4519 E01033 TOP FL400 MOV E NC=
Turbulence forte
LIMM SIGMET 17 VALID 251630/251830 LIMM- LIMM MILANO FIR SEV TURB OBS E OF LINE N4641 E01005 - N4328 E01219 FL270/420 MOV E NC=



MET'MAP, la Météo Aéronautique d'un coup d'oeil ! - Copyright ORBIFLY Décembre 2007 - Disclaimer

ORBIFLY MET'MAP TEAM :

Programmation & Développement : Alexandra Zaïnal
Conception & Développement : Baudouin d'Aumeries
Co-Programmation & Développement : Marc-Olivier Méhu
Soutien technique & logistique : Manuel Goepfert

Contact : metmap@orbifly.com




SOURCES & CREDITS :

   NOAA